Дата Пункты Температура Давл., мм. Влажн., % Ветер Погодные явления
Воздуха Воды Направл. Скорость
26.06.19 12:00 Одесса 28.0 25.0 764 49 С 2 12 ГОДИН
26.06.19 09:00 Одесса 25.0 25.0 764 52 Пн-С 4 09 ГОДИН
26.06.19 06:00 Одесса 22.0 25.0 763 60 Пн 1 06 ГОДИН
26.06.19 03:00 Одесса 23.0 25.0 763 57 Пн 1 03 ГОДИНИ
25.06.19 09:00 Одесса 27.0 25.0 762 68 Пн 2 21 ГОДИНУ
25.06.19 06:00 Одесса 29.0 26.0 761 57 Пн-С 5 18 ГОДИН
25.06.19 03:00 Одесса 31.0 26.0 761 50 С 2 15 ГОДИН
25.06.19 12:00 Одесса 30.0 25.0 761 57 С 4 12 ГОДИН
25.06.19 09:00 Одесса 27.0 25.0 761 58 Пн 3 09 ГОДИН
25.06.19 06:00 Одесса 24.0 24.0 759 71 Пн 4 06 ГОДИН
25.06.19 03:00 Одесса 24.0 24.0 759 70 Пн-З 2 03 ГОДИНИ
24.06.19 09:00 Одесса 27.0 25.0 759 51 Пн-З 2 21 ГОДИНУ
24.06.19 06:00 Одесса 29.0 25.0 758 42 Пн 6 18 ГОДИН
24.06.19 03:00 Одесса 32.0 25.0 758 43 Пн-С 3 15 ГОДИН
24.06.19 12:00 Одесса 29.0 25.0 758 52 С 1 12 ГОДИН
24.06.19 09:00 Одесса 28.0 25.0 758 49 Пн 2 09 ГОДИН
24.06.19 06:00 Одесса 23.0 25.0 757 69 Пн-З 1 06 ГОДИН
24.06.19 03:00 Одесса 22.0 25.0 757 80 Пн 0 03 ГОДИНИ
23.06.19 09:00 Одесса 26.0 25.0 757 48 С 1 21 ГОДИНУ
23.06.19 06:00 Одесса 30.0 25.0 757 33 Пд 1 18 ГОДИН
Количество строк
1 2 3 4 5 6 7 8 9 10
Page 9 of 511